Decoded Metar for NCRG (AVARUA in COOK ISLANDS) (IATA:RAR) | Meteo·Mobile Aviation Weather
aviador You're here:

NCRG Decoded Metar

AVARUA in COOK ISLANDS
Report Time2019-07-21 16:30:00
UTC Time2019-07-21 16:53:01
Flight Rules mvfr MVFR
Wind050° at 09 kt
W.Decomp.*RWY 08: 6.5 kt HW 6.3 kt LCW
Visibility9999 m
Phenomena:N/A
Clouds:Broken 015 Hf
Broken 065 Hf
Expected CloudBase > 800 ft AGL from Temp-Dew spread
Ceiling1,500 ft
Temp24°C (ISA +9)
Dew Point22°C (89% RH)
QNH1011 hPa
Density Alt1,486 ft
Elevation23 ft
Report Wrong Elevation
Raw Report
METAR NCRG 211630Z AUTO 05009KT 9999 BKN015/// BKN065/// 24/22 Q1011=

Extra information for NCRG:More info

Metar Taf Metar & Taf Last 4 Metars F.Rules Stats Wind Profile Meteogram Temp Stats Airport Information Weather charts Add Link Nearby VenuesMetar ALERT Operation Metar Decoded Social comments